createdAt,value
2022-11-25T00:02:48.311Z,3.29
2022-11-25T00:05:51.302Z,3.29
2022-11-25T00:08:57.708Z,3.30
2022-11-25T00:12:00.656Z,3.32
2022-11-25T00:15:04.701Z,3.35
2022-11-25T00:18:09.125Z,3.35
2022-11-25T00:21:15.153Z,3.34
2022-11-25T00:24:20.492Z,3.34
2022-11-25T00:27:23.740Z,3.41
2022-11-25T00:30:26.746Z,3.42
2022-11-25T00:33:31.203Z,3.43
2022-11-25T00:36:37.427Z,3.45
2022-11-25T00:39:40.430Z,3.46
2022-11-25T00:43:00.975Z,3.46
2022-11-25T00:46:03.953Z,3.39
2022-11-25T00:49:08.606Z,3.39
2022-11-25T00:52:16.742Z,3.44
2022-11-25T00:55:19.742Z,3.42
2022-11-25T00:58:22.763Z,3.43
2022-11-25T01:01:27.440Z,3.46
2022-11-25T01:04:31.820Z,3.50
2022-11-25T01:07:34.802Z,3.55
2022-11-25T01:10:37.754Z,3.58
2022-11-25T01:13:41.887Z,3.59
2022-11-25T01:16:44.936Z,3.54
2022-11-25T01:19:49.346Z,3.59
2022-11-25T01:22:53.358Z,3.57
2022-11-25T01:25:56.389Z,3.60
2022-11-25T01:29:03.635Z,3.64
2022-11-25T01:32:09.868Z,3.66
2022-11-25T01:35:16.428Z,3.68
2022-11-25T01:38:19.400Z,3.65
2022-11-25T01:41:24.243Z,3.62
2022-11-25T01:44:30.315Z,3.61
2022-11-25T01:47:34.366Z,3.60
2022-11-25T01:50:39.390Z,3.60
2022-11-25T01:53:42.506Z,3.61
2022-11-25T01:56:53.073Z,3.64
2022-11-25T02:00:00.854Z,3.58
2022-11-25T02:03:04.493Z,3.71
2022-11-25T02:06:13.611Z,3.66
2022-11-25T02:09:17.576Z,3.72
2022-11-25T02:12:22.766Z,3.65
2022-11-25T02:15:26.833Z,3.72
2022-11-25T02:18:31.374Z,3.75
2022-11-25T02:21:44.914Z,3.76
2022-11-25T02:24:49.797Z,3.75
2022-11-25T02:27:58.721Z,3.75
2022-11-25T02:31:01.901Z,3.69
2022-11-25T02:34:05.213Z,3.70
2022-11-25T02:37:11.110Z,3.68
2022-11-25T02:40:15.400Z,3.68
2022-11-25T02:43:19.840Z,3.72
2022-11-25T02:46:25.872Z,3.73
2022-11-25T02:49:28.900Z,3.76
2022-11-25T02:52:31.887Z,3.78
2022-11-25T02:55:36.019Z,3.82
2022-11-25T02:58:41.289Z,3.81
2022-11-25T03:01:44.993Z,3.75
2022-11-25T03:04:47.961Z,3.72
2022-11-25T03:07:51.434Z,3.75
2022-11-25T03:10:59.433Z,3.81
2022-11-25T03:14:05.395Z,3.82
2022-11-25T03:17:09.887Z,3.84
2022-11-25T03:20:15.183Z,3.80
2022-11-25T03:23:19.516Z,3.77
2022-11-25T03:26:22.894Z,3.76
2022-11-25T03:29:29.728Z,3.76
2022-11-25T03:32:32.872Z,3.81
2022-11-25T03:35:40.523Z,3.79
2022-11-25T03:38:45.859Z,3.75
2022-11-25T03:41:50.999Z,3.67
2022-11-25T03:44:57.791Z,3.76
2022-11-25T03:48:02.870Z,3.77
2022-11-25T03:51:06.425Z,3.70
2022-11-25T03:54:13.196Z,3.78
2022-11-25T03:57:36.588Z,3.83
2022-11-25T04:00:40.999Z,3.84
2022-11-25T04:03:43.968Z,3.88
2022-11-25T04:06:49.867Z,3.83
2022-11-25T04:09:54.126Z,3.81
2022-11-25T04:13:00.997Z,3.83
2022-11-25T04:16:24.550Z,3.80
2022-11-25T04:19:28.998Z,3.82
2022-11-25T04:22:34.820Z,3.85
2022-11-25T04:25:41.346Z,3.86
2022-11-25T04:28:49.357Z,3.89
2022-11-25T04:31:53.677Z,3.88
2022-11-25T04:34:56.753Z,3.89
2022-11-25T04:37:59.951Z,3.95
2022-11-25T04:41:03.364Z,3.94
2022-11-25T04:44:11.797Z,4.01
2022-11-25T04:47:16.911Z,4.00
2022-11-25T04:50:23.984Z,3.92
2022-11-25T04:53:37.627Z,3.99
2022-11-25T04:56:42.702Z,4.00
2022-11-25T04:59:46.827Z,3.95
2022-11-25T05:02:53.540Z,4.02
2022-11-25T05:05:57.743Z,4.04
2022-11-25T05:09:00.920Z,4.01
2022-11-25T05:12:04.904Z,4.03
2022-11-25T05:15:10.036Z,4.05
2022-11-25T05:18:16.315Z,4.04
2022-11-25T05:21:21.910Z,4.03
2022-11-25T05:24:25.376Z,4.05
2022-11-25T05:27:29.298Z,4.06
2022-11-25T05:30:35.672Z,4.05
2022-11-25T05:33:39.953Z,4.09
2022-11-25T05:36:45.535Z,4.06
2022-11-25T05:39:48.943Z,4.10
2022-11-25T05:42:53.368Z,4.14
2022-11-25T05:45:56.883Z,4.12
2022-11-25T05:49:02.171Z,4.10
2022-11-25T05:52:05.296Z,4.11
2022-11-25T05:55:15.422Z,4.14
2022-11-25T05:58:23.427Z,4.14
2022-11-25T06:01:29.532Z,4.13
2022-11-25T06:04:34.202Z,4.13
2022-11-25T06:07:38.622Z,4.07
2022-11-25T06:10:42.615Z,4.10
2022-11-25T06:13:49.459Z,4.15
2022-11-25T06:16:53.548Z,4.14
2022-11-25T06:20:02.898Z,4.11
2022-11-25T06:23:07.449Z,4.07
2022-11-25T06:26:16.123Z,4.09
2022-11-25T06:29:19.211Z,4.03
2022-11-25T06:32:25.939Z,3.98
2022-11-25T06:35:37.054Z,3.97
2022-11-25T06:38:40.443Z,3.95
2022-11-25T06:41:43.751Z,3.91
2022-11-25T06:44:46.684Z,3.89
2022-11-25T06:47:49.925Z,3.87
2022-11-25T06:51:03.124Z,3.83
2022-11-25T06:54:07.223Z,3.82
2022-11-25T06:57:10.889Z,3.67
2022-11-25T07:00:15.283Z,3.76
2022-11-25T07:03:18.306Z,3.81
2022-11-25T07:06:23.486Z,3.79
2022-11-25T07:09:26.866Z,3.77
2022-11-25T07:12:32.212Z,3.79
2022-11-25T07:15:38.403Z,3.80
2022-11-25T07:18:42.330Z,3.77
2022-11-25T07:21:47.466Z,3.80
2022-11-25T07:24:50.996Z,3.79
2022-11-25T07:27:54.232Z,3.75
2022-11-25T07:34:22.360Z,3.73
2022-11-25T07:37:27.647Z,3.80
2022-11-25T07:40:31.141Z,3.70
2022-11-25T07:43:34.949Z,3.63
2022-11-25T07:46:40.849Z,3.56
2022-11-25T07:49:43.870Z,3.53
2022-11-25T07:52:48.396Z,3.53
2022-11-25T07:55:51.384Z,3.53
2022-11-25T07:58:54.781Z,3.53
2022-11-25T08:01:57.939Z,3.53
2022-11-25T08:05:00.945Z,3.53
2022-11-25T08:08:06.488Z,3.58
2022-11-25T08:11:12.051Z,3.55
2022-11-25T08:14:15.861Z,3.59
2022-11-25T08:17:18.859Z,3.64
2022-11-25T08:20:22.265Z,3.64
2022-11-25T08:23:26.539Z,3.71
2022-11-25T08:26:31.710Z,3.64
2022-11-25T08:29:34.868Z,3.68
2022-11-25T08:32:39.324Z,3.70
2022-11-25T08:35:42.557Z,3.73
2022-11-25T08:38:49.795Z,3.78
2022-11-25T08:41:52.760Z,3.87
2022-11-25T08:44:57.059Z,3.97
2022-11-25T08:48:00.012Z,3.98
2022-11-25T08:51:03.262Z,3.94
2022-11-25T08:54:09.619Z,3.97
2022-11-25T08:57:12.947Z,4.07
2022-11-25T09:00:17.515Z,4.21
2022-11-25T09:03:20.526Z,4.31
2022-11-25T09:06:25.741Z,4.37
2022-11-25T09:09:30.048Z,4.22
2022-11-25T09:12:33.031Z,4.32
2022-11-25T09:15:35.992Z,4.32
2022-11-25T09:18:39.911Z,4.37
2022-11-25T09:21:44.468Z,4.31
2022-11-25T09:24:48.925Z,4.15
2022-11-25T09:27:51.976Z,4.32
2022-11-25T09:30:55.109Z,4.32
2022-11-25T09:33:58.162Z,4.35
2022-11-25T09:37:02.222Z,4.47
2022-11-25T09:40:15.201Z,4.50
2022-11-25T09:43:54.316Z,4.55
2022-11-25T09:47:06.850Z,4.58
2022-11-25T09:50:19.949Z,4.73
2022-11-25T09:53:38.688Z,4.82
2022-11-25T09:56:48.389Z,4.90
2022-11-25T10:00:06.128Z,4.84
2022-11-25T10:03:30.936Z,4.84
2022-11-25T10:06:42.439Z,4.79
2022-11-25T10:09:45.855Z,4.75
2022-11-25T10:12:52.588Z,4.88
2022-11-25T10:15:59.145Z,4.65
2022-11-25T10:19:08.425Z,4.60
2022-11-25T10:22:24.229Z,4.64
2022-11-25T10:25:31.480Z,4.71
2022-11-25T10:28:36.508Z,4.80
2022-11-25T10:31:40.517Z,4.81
2022-11-25T10:34:49.771Z,4.85
2022-11-25T10:37:57.376Z,4.92
2022-11-25T10:41:01.425Z,4.87
2022-11-25T10:44:27.768Z,4.89
2022-11-25T10:47:37.848Z,4.92
2022-11-25T10:50:56.373Z,4.93
2022-11-25T10:54:27.313Z,4.93
2022-11-25T10:57:31.027Z,5.06
2022-11-25T11:00:38.753Z,5.03
2022-11-25T11:03:42.666Z,5.06
2022-11-25T11:06:48.758Z,5.02
2022-11-25T11:09:52.352Z,5.10
2022-11-25T11:13:01.292Z,5.25
2022-11-25T11:16:22.893Z,5.27
2022-11-25T11:19:29.173Z,5.26
2022-11-25T11:22:36.745Z,5.25
2022-11-25T11:25:44.652Z,5.26
2022-11-25T11:28:47.606Z,5.34
2022-11-25T11:32:01.682Z,5.33
2022-11-25T11:35:14.341Z,5.41
2022-11-25T11:38:37.693Z,5.30
2022-11-25T11:41:46.435Z,5.29
2022-11-25T11:45:07.898Z,5.32
2022-11-25T11:48:28.399Z,5.41
2022-11-25T11:51:40.503Z,5.47
2022-11-25T11:54:47.740Z,5.68
2022-11-25T11:58:00.422Z,5.67
2022-11-25T12:01:20.777Z,5.66
2022-11-25T12:04:30.427Z,5.57
2022-11-25T12:07:37.922Z,5.52
2022-11-25T12:10:44.867Z,5.68
2022-11-25T12:14:00.804Z,5.60
2022-11-25T12:17:14.630Z,5.73
2022-11-25T12:20:33.430Z,5.64
2022-11-25T12:23:46.154Z,5.64
2022-11-25T12:26:58.120Z,5.51
2022-11-25T12:30:07.271Z,5.53
2022-11-25T12:33:17.858Z,5.53
2022-11-25T12:36:32.833Z,5.60
2022-11-25T12:39:44.176Z,5.59
2022-11-25T12:42:50.009Z,5.61
2022-11-25T12:46:06.320Z,5.72
2022-11-25T12:49:20.235Z,5.70
2022-11-25T12:52:44.573Z,5.72
2022-11-25T12:55:47.563Z,5.62
2022-11-25T12:59:03.830Z,5.56
2022-11-25T13:02:37.158Z,5.50
2022-11-25T13:06:17.203Z,5.53
2022-11-25T13:09:56.366Z,5.50
2022-11-25T13:13:22.151Z,5.44
2022-11-25T13:16:27.037Z,5.35
2022-11-25T13:19:33.631Z,5.36
2022-11-25T13:22:36.680Z,5.37
2022-11-25T13:25:44.344Z,5.39
2022-11-25T13:28:47.287Z,5.46
2022-11-25T13:31:59.636Z,5.49
2022-11-25T13:35:36.442Z,5.62
2022-11-25T13:39:00.510Z,5.64
2022-11-25T13:42:16.546Z,5.60
2022-11-25T13:45:29.130Z,5.66
2022-11-25T13:48:37.031Z,5.72
2022-11-25T13:51:50.769Z,5.73
2022-11-25T13:54:55.967Z,5.76
2022-11-25T13:58:14.627Z,5.73
2022-11-25T14:01:30.280Z,5.75
2022-11-25T14:04:46.737Z,5.81
2022-11-25T14:08:07.846Z,5.79
2022-11-25T14:11:40.000Z,5.79
2022-11-25T14:15:06.071Z,5.79
2022-11-25T14:19:21.661Z,5.80
2022-11-25T14:22:24.607Z,5.87
2022-11-25T14:25:31.684Z,5.91
2022-11-25T14:28:41.166Z,5.77
2022-11-25T14:31:51.445Z,5.75
2022-11-25T14:35:01.535Z,5.75
2022-11-25T14:38:10.670Z,5.75
2022-11-25T14:41:20.396Z,5.76
2022-11-25T14:44:28.851Z,5.74
2022-11-25T14:47:38.606Z,5.64
2022-11-25T14:50:53.711Z,5.61
2022-11-25T14:53:57.741Z,5.66
2022-11-25T14:57:01.179Z,5.72
2022-11-25T15:00:07.974Z,5.78
2022-11-25T15:03:21.088Z,5.82
2022-11-25T15:06:24.088Z,5.84
2022-11-25T15:09:31.511Z,5.85
2022-11-25T15:12:34.801Z,5.91
2022-11-25T15:15:37.949Z,5.91
2022-11-25T15:18:51.325Z,5.90
2022-11-25T15:22:23.149Z,5.88
2022-11-25T15:25:25.809Z,5.89
2022-11-25T15:28:34.824Z,5.90
2022-11-25T15:31:41.491Z,5.89
2022-11-25T15:34:47.511Z,5.87
2022-11-25T15:37:50.971Z,5.81
2022-11-25T15:40:57.311Z,5.77
2022-11-25T15:44:02.927Z,5.76
2022-11-25T15:47:15.537Z,5.77
2022-11-25T15:50:24.108Z,5.83
2022-11-25T15:53:33.147Z,5.75
2022-11-25T15:56:40.587Z,5.71
2022-11-25T15:59:50.586Z,5.73
2022-11-25T16:02:55.746Z,5.74
2022-11-25T16:06:01.855Z,5.73
2022-11-25T16:09:21.603Z,5.70
2022-11-25T16:12:31.082Z,5.71
2022-11-25T16:15:56.615Z,5.76
2022-11-25T16:19:18.601Z,5.74
2022-11-25T16:22:23.668Z,5.75
2022-11-25T16:25:27.185Z,5.75
2022-11-25T16:28:30.793Z,5.73
2022-11-25T16:31:33.803Z,5.79
2022-11-25T16:34:36.987Z,5.84
2022-11-25T16:41:12.669Z,5.81
2022-11-25T16:44:21.169Z,5.80
2022-11-25T16:47:26.154Z,5.75
2022-11-25T16:50:29.141Z,5.76
2022-11-25T16:53:33.418Z,5.74
2022-11-25T16:56:42.774Z,5.78
2022-11-25T16:59:47.304Z,5.76
2022-11-25T17:02:50.367Z,5.74
2022-11-25T17:05:55.148Z,5.76
2022-11-25T17:08:59.462Z,5.80
2022-11-25T17:12:02.675Z,5.82
2022-11-25T17:15:09.741Z,5.77
2022-11-25T17:18:16.835Z,5.77
2022-11-25T17:21:19.884Z,5.80
2022-11-25T17:24:25.916Z,5.79
2022-11-25T17:27:33.175Z,5.79
2022-11-25T17:30:41.511Z,5.81
2022-11-25T17:33:55.813Z,5.79
2022-11-25T17:37:00.337Z,5.78
2022-11-25T17:40:06.334Z,5.79
2022-11-25T17:43:15.447Z,5.81
2022-11-25T17:46:19.556Z,5.84
2022-11-25T17:49:22.901Z,5.88
2022-11-25T17:52:25.921Z,5.89
2022-11-25T17:55:30.852Z,5.91
2022-11-25T17:58:37.516Z,5.94
2022-11-25T18:01:40.535Z,5.91
2022-11-25T18:04:43.576Z,5.91
2022-11-25T18:07:46.833Z,5.96
2022-11-25T18:10:51.287Z,5.98
2022-11-25T18:13:55.732Z,5.98
2022-11-25T18:17:02.339Z,5.94
2022-11-25T18:20:17.919Z,5.94
2022-11-25T18:23:21.082Z,5.91
2022-11-25T18:26:25.570Z,5.91
2022-11-25T18:29:28.787Z,5.92
2022-11-25T18:32:31.705Z,5.91
2022-11-25T18:35:36.848Z,5.92
2022-11-25T18:38:40.559Z,5.92
2022-11-25T18:41:46.544Z,5.90
2022-11-25T18:44:51.935Z,5.89
2022-11-25T18:47:55.347Z,5.84
2022-11-25T18:50:58.282Z,5.86
2022-11-25T18:54:01.214Z,5.84
2022-11-25T18:57:05.903Z,5.86
2022-11-25T19:00:32.844Z,5.87
2022-11-25T19:03:36.458Z,5.90
2022-11-25T19:06:41.531Z,5.91
2022-11-25T19:09:44.587Z,5.87
2022-11-25T19:12:53.207Z,5.90
2022-11-25T19:15:57.531Z,5.95
2022-11-25T19:19:05.513Z,5.96
2022-11-25T19:22:11.901Z,5.91
2022-11-25T19:25:15.331Z,5.92
2022-11-25T19:28:20.224Z,5.93
2022-11-25T19:31:23.640Z,5.92
2022-11-25T19:34:32.514Z,5.94
2022-11-25T19:37:39.072Z,5.97
2022-11-25T19:40:42.192Z,5.95
2022-11-25T19:43:47.026Z,5.90
2022-11-25T19:50:23.279Z,5.89
2022-11-25T19:53:33.744Z,5.89
2022-11-25T19:56:47.933Z,5.85
2022-11-25T19:59:53.074Z,5.86
2022-11-25T20:02:57.208Z,5.90
2022-11-25T20:06:00.386Z,5.92
2022-11-25T20:09:07.894Z,5.94
2022-11-25T20:12:22.806Z,5.91
2022-11-25T20:15:27.971Z,5.97
2022-11-25T20:18:31.289Z,6.00
2022-11-25T20:21:38.547Z,5.98
2022-11-25T20:24:43.542Z,6.00
2022-11-25T20:27:46.659Z,6.01
2022-11-25T20:30:52.177Z,6.06
2022-11-25T20:33:55.352Z,6.00
2022-11-25T20:36:58.462Z,6.06
2022-11-25T20:40:02.435Z,6.07
2022-11-25T20:43:05.623Z,6.06
2022-11-25T20:46:17.963Z,6.11
2022-11-25T20:49:25.746Z,6.09
2022-11-25T20:52:32.397Z,6.08
2022-11-25T20:55:35.518Z,6.09
2022-11-25T20:58:39.549Z,6.06
2022-11-25T21:01:44.944Z,6.07
2022-11-25T21:04:48.062Z,6.06
2022-11-25T21:07:51.998Z,6.08
2022-11-25T21:10:57.249Z,6.02
2022-11-25T21:14:01.915Z,6.02
2022-11-25T21:17:06.820Z,6.06
2022-11-25T21:20:13.656Z,6.06
2022-11-25T21:23:22.217Z,6.07
2022-11-25T21:26:27.613Z,6.07
2022-11-25T21:29:32.293Z,6.06
2022-11-25T21:32:36.695Z,6.01
2022-11-25T21:35:41.709Z,6.06
2022-11-25T21:38:45.386Z,6.10
2022-11-25T21:41:48.379Z,6.14
2022-11-25T21:44:53.122Z,6.17
2022-11-25T21:47:57.521Z,6.15
2022-11-25T21:51:01.335Z,6.16
2022-11-25T21:54:05.063Z,6.17
2022-11-25T21:57:19.435Z,6.17
2022-11-25T22:00:25.981Z,6.16
2022-11-25T22:03:35.173Z,6.19
2022-11-25T22:06:38.545Z,6.18
2022-11-25T22:09:43.754Z,6.22
2022-11-25T22:12:48.157Z,6.25
2022-11-25T22:15:56.272Z,6.19
2022-11-25T22:19:00.965Z,6.23
2022-11-25T22:22:03.900Z,6.24
2022-11-25T22:25:10.018Z,6.23
2022-11-25T22:28:18.290Z,6.20
2022-11-25T22:31:22.202Z,6.20
2022-11-25T22:34:29.977Z,6.22
2022-11-25T22:37:34.093Z,6.23
2022-11-25T22:40:38.657Z,6.23
2022-11-25T22:43:50.680Z,6.25
2022-11-25T22:46:54.533Z,6.28
2022-11-25T22:49:59.667Z,6.27
2022-11-25T22:53:03.003Z,6.32
2022-11-25T22:56:06.556Z,6.36
2022-11-25T22:59:10.380Z,6.41
2022-11-25T23:02:20.772Z,6.51
2022-11-25T23:05:32.492Z,6.69
2022-11-25T23:08:36.895Z,6.81
2022-11-25T23:11:41.161Z,6.97
2022-11-25T23:14:45.267Z,6.97
2022-11-25T23:17:51.588Z,7.01
2022-11-25T23:20:56.262Z,7.04
2022-11-25T23:23:59.766Z,7.02
2022-11-25T23:27:02.798Z,7.02
2022-11-25T23:30:09.548Z,7.03
2022-11-25T23:33:22.946Z,7.03
2022-11-25T23:36:31.239Z,7.06
2022-11-25T23:39:34.367Z,7.09
2022-11-25T23:42:37.737Z,7.11
2022-11-25T23:45:48.307Z,7.13
2022-11-25T23:48:56.012Z,7.15
2022-11-25T23:52:07.988Z,7.15
2022-11-25T23:55:16.679Z,7.14
2022-11-25T23:58:23.483Z,7.11
